sensor_id;sensor_type;location;lat;lon;timestamp;temperature;humidity
26505;DHT22;19493;48.042;7.584;2023-06-19T00:00:53;18.60;99.90
26505;DHT22;19493;48.042;7.584;2023-06-19T00:03:18;18.50;99.90
26505;DHT22;19493;48.042;7.584;2023-06-19T00:05:44;18.40;99.90
26505;DHT22;19493;48.042;7.584;2023-06-19T00:08:09;18.40;99.90
26505;DHT22;19493;48.042;7.584;2023-06-19T00:10:35;18.30;99.90
26505;DHT22;19493;48.042;7.584;2023-06-19T00:13:00;18.30;99.90
26505;DHT22;19493;48.042;7.584;2023-06-19T00:15:26;18.30;99.90
26505;DHT22;19493;48.042;7.584;2023-06-19T00:17:55;18.30;99.90
26505;DHT22;19493;48.042;7.584;2023-06-19T00:20:22;18.30;99.90
26505;DHT22;19493;48.042;7.584;2023-06-19T00:22:48;18.20;99.90
26505;DHT22;19493;48.042;7.584;2023-06-19T00:25:20;18.20;99.90
26505;DHT22;19493;48.042;7.584;2023-06-19T00:27:46;18.20;99.90
26505;DHT22;19493;48.042;7.584;2023-06-19T00:30:12;18.20;99.90
26505;DHT22;19493;48.042;7.584;2023-06-19T00:32:38;18.20;99.90
26505;DHT22;19493;48.042;7.584;2023-06-19T00:35:13;18.30;99.90
26505;DHT22;19493;48.042;7.584;2023-06-19T00:37:38;18.30;99.90
26505;DHT22;19493;48.042;7.584;2023-06-19T00:40:06;18.30;99.90
26505;DHT22;19493;48.042;7.584;2023-06-19T00:42:33;18.40;99.90
26505;DHT22;19493;48.042;7.584;2023-06-19T00:44:59;18.30;99.90
26505;DHT22;19493;48.042;7.584;2023-06-19T00:47:24;18.40;99.90
26505;DHT22;19493;48.042;7.584;2023-06-19T00:49:51;18.50;99.90
26505;DHT22;19493;48.042;7.584;2023-06-19T00:52:16;18.60;99.90
26505;DHT22;19493;48.042;7.584;2023-06-19T00:54:43;18.80;99.90
26505;DHT22;19493;48.042;7.584;2023-06-19T00:57:08;19.30;99.90
26505;DHT22;19493;48.042;7.584;2023-06-19T00:59:34;19.70;99.90
26505;DHT22;19493;48.042;7.584;2023-06-19T01:02:00;19.70;99.90
26505;DHT22;19493;48.042;7.584;2023-06-19T01:04:26;19.00;99.90
26505;DHT22;19493;48.042;7.584;2023-06-19T01:07:11;18.60;99.90
26505;DHT22;19493;48.042;7.584;2023-06-19T01:09:52;18.30;99.90
26505;DHT22;19493;48.042;7.584;2023-06-19T01:12:22;18.20;99.90
26505;DHT22;19493;48.042;7.584;2023-06-19T01:14:58;18.20;99.90
26505;DHT22;19493;48.042;7.584;2023-06-19T01:17:28;18.20;99.90
26505;DHT22;19493;48.042;7.584;2023-06-19T01:19:55;18.20;99.90
26505;DHT22;19493;48.042;7.584;2023-06-19T01:22:31;18.20;99.90
26505;DHT22;19493;48.042;7.584;2023-06-19T01:24:56;18.20;99.90
26505;DHT22;19493;48.042;7.584;2023-06-19T01:27:26;18.10;99.90
26505;DHT22;19493;48.042;7.584;2023-06-19T01:29:55;18.10;99.90
26505;DHT22;19493;48.042;7.584;2023-06-19T01:35:16;18.00;99.90
26505;DHT22;19493;48.042;7.584;2023-06-19T01:37:43;17.90;99.90
26505;DHT22;19493;48.042;7.584;2023-06-19T01:40:11;17.90;99.90
26505;DHT22;19493;48.042;7.584;2023-06-19T01:42:38;17.90;99.90
26505;DHT22;19493;48.042;7.584;2023-06-19T01:45:05;17.90;99.90
26505;DHT22;19493;48.042;7.584;2023-06-19T01:47:31;17.80;99.90
26505;DHT22;19493;48.042;7.584;2023-06-19T01:49:57;17.90;99.90
26505;DHT22;19493;48.042;7.584;2023-06-19T01:52:24;17.90;99.90
26505;DHT22;19493;48.042;7.584;2023-06-19T01:54:50;17.80;99.90
26505;DHT22;19493;48.042;7.584;2023-06-19T01:57:16;17.80;99.90
26505;DHT22;19493;48.042;7.584;2023-06-19T01:59:41;17.80;99.90
26505;DHT22;19493;48.042;7.584;2023-06-19T02:02:07;17.80;99.90
26505;DHT22;19493;48.042;7.584;2023-06-19T02:04:33;17.80;99.90
26505;DHT22;19493;48.042;7.584;2023-06-19T02:06:58;17.80;99.90
26505;DHT22;19493;48.042;7.584;2023-06-19T02:09:24;17.80;99.90
26505;DHT22;19493;48.042;7.584;2023-06-19T02:11:50;17.80;99.90
26505;DHT22;19493;48.042;7.584;2023-06-19T02:14:15;17.80;99.90
26505;DHT22;19493;48.042;7.584;2023-06-19T02:16:41;17.80;99.90
26505;DHT22;19493;48.042;7.584;2023-06-19T02:19:11;17.80;99.90
26505;DHT22;19493;48.042;7.584;2023-06-19T02:21:37;17.80;99.90
26505;DHT22;19493;48.042;7.584;2023-06-19T02:24:03;17.80;99.90
26505;DHT22;19493;48.042;7.584;2023-06-19T02:26:29;17.80;99.90
26505;DHT22;19493;48.042;7.584;2023-06-19T02:28:55;17.80;99.90
26505;DHT22;19493;48.042;7.584;2023-06-19T02:31:24;17.80;99.90
26505;DHT22;19493;48.042;7.584;2023-06-19T02:33:50;17.80;99.90
26505;DHT22;19493;48.042;7.584;2023-06-19T02:36:16;17.80;99.90
26505;DHT22;19493;48.042;7.584;2023-06-19T02:38:46;17.80;99.90
26505;DHT22;19493;48.042;7.584;2023-06-19T02:41:12;17.80;99.90
26505;DHT22;19493;48.042;7.584;2023-06-19T02:43:38;17.80;99.90
26505;DHT22;19493;48.042;7.584;2023-06-19T02:46:05;17.80;99.90
26505;DHT22;19493;48.042;7.584;2023-06-19T02:48:31;17.80;99.90
26505;DHT22;19493;48.042;7.584;2023-06-19T02:50:56;17.80;99.90
26505;DHT22;19493;48.042;7.584;2023-06-19T02:53:22;17.80;99.90
26505;DHT22;19493;48.042;7.584;2023-06-19T02:55:47;17.80;99.90
26505;DHT22;19493;48.042;7.584;2023-06-19T02:58:13;17.80;99.90
26505;DHT22;19493;48.042;7.584;2023-06-19T03:00:38;17.80;99.90
26505;DHT22;19493;48.042;7.584;2023-06-19T03:03:05;17.80;99.90
26505;DHT22;19493;48.042;7.584;2023-06-19T03:05:30;17.80;99.90
26505;DHT22;19493;48.042;7.584;2023-06-19T03:07:56;17.80;99.90
26505;DHT22;19493;48.042;7.584;2023-06-19T03:10:22;17.80;99.90
26505;DHT22;19493;48.042;7.584;2023-06-19T03:12:47;17.80;99.90
26505;DHT22;19493;48.042;7.584;2023-06-19T03:15:13;17.80;99.90
26505;DHT22;19493;48.042;7.584;2023-06-19T03:17:39;17.80;99.90
26505;DHT22;19493;48.042;7.584;2023-06-19T03:20:05;17.70;99.90
26505;DHT22;19493;48.042;7.584;2023-06-19T03:22:31;17.70;99.90
26505;DHT22;19493;48.042;7.584;2023-06-19T03:24:57;17.70;99.90
26505;DHT22;19493;48.042;7.584;2023-06-19T03:27:22;17.70;99.90
26505;DHT22;19493;48.042;7.584;2023-06-19T03:29:50;17.70;99.90
26505;DHT22;19493;48.042;7.584;2023-06-19T03:32:15;17.70;99.90
26505;DHT22;19493;48.042;7.584;2023-06-19T03:34:41;17.80;99.90
26505;DHT22;19493;48.042;7.584;2023-06-19T03:37:07;17.80;99.90
26505;DHT22;19493;48.042;7.584;2023-06-19T03:39:32;17.80;99.90
26505;DHT22;19493;48.042;7.584;2023-06-19T03:41:58;17.80;99.90
26505;DHT22;19493;48.042;7.584;2023-06-19T03:44:23;17.80;99.90
26505;DHT22;19493;48.042;7.584;2023-06-19T03:46:49;17.90;99.90
26505;DHT22;19493;48.042;7.584;2023-06-19T03:49:16;17.90;99.90
26505;DHT22;19493;48.042;7.584;2023-06-19T03:51:41;17.90;99.90
26505;DHT22;19493;48.042;7.584;2023-06-19T03:54:07;17.90;99.90
26505;DHT22;19493;48.042;7.584;2023-06-19T03:56:32;17.90;99.90
26505;DHT22;19493;48.042;7.584;2023-06-19T03:58:58;17.90;99.90
26505;DHT22;19493;48.042;7.584;2023-06-19T04:01:23;17.90;99.90
26505;DHT22;19493;48.042;7.584;2023-06-19T04:03:49;17.90;99.90
26505;DHT22;19493;48.042;7.584;2023-06-19T04:06:14;17.90;99.90
26505;DHT22;19493;48.042;7.584;2023-06-19T04:08:40;18.00;99.90
26505;DHT22;19493;48.042;7.584;2023-06-19T04:11:06;18.00;99.90
26505;DHT22;19493;48.042;7.584;2023-06-19T04:13:31;18.00;99.90
26505;DHT22;19493;48.042;7.584;2023-06-19T04:15:57;18.00;99.90
26505;DHT22;19493;48.042;7.584;2023-06-19T04:18:22;18.00;99.90
26505;DHT22;19493;48.042;7.584;2023-06-19T04:20:48;18.10;99.90
26505;DHT22;19493;48.042;7.584;2023-06-19T04:23:13;18.10;99.90
26505;DHT22;19493;48.042;7.584;2023-06-19T04:25:39;18.10;99.90
26505;DHT22;19493;48.042;7.584;2023-06-19T04:28:04;18.10;99.90
26505;DHT22;19493;48.042;7.584;2023-06-19T04:30:30;18.10;99.90
26505;DHT22;19493;48.042;7.584;2023-06-19T04:32:58;18.20;99.90
26505;DHT22;19493;48.042;7.584;2023-06-19T04:35:23;18.20;99.90
26505;DHT22;19493;48.042;7.584;2023-06-19T04:37:49;18.20;99.90
26505;DHT22;19493;48.042;7.584;2023-06-19T04:40:15;18.30;99.90
26505;DHT22;19493;48.042;7.584;2023-06-19T04:42:41;18.30;99.90
26505;DHT22;19493;48.042;7.584;2023-06-19T04:45:07;18.30;99.90
26505;DHT22;19493;48.042;7.584;2023-06-19T04:47:33;18.20;99.90
26505;DHT22;19493;48.042;7.584;2023-06-19T04:49:59;18.30;99.90
26505;DHT22;19493;48.042;7.584;2023-06-19T04:52:24;18.30;99.90
26505;DHT22;19493;48.042;7.584;2023-06-19T04:54:50;18.30;99.90
26505;DHT22;19493;48.042;7.584;2023-06-19T04:57:15;18.30;99.90
26505;DHT22;19493;48.042;7.584;2023-06-19T04:59:45;18.30;99.90
26505;DHT22;19493;48.042;7.584;2023-06-19T05:02:11;18.40;99.90
26505;DHT22;19493;48.042;7.584;2023-06-19T05:04:37;18.40;99.90
26505;DHT22;19493;48.042;7.584;2023-06-19T05:07:02;18.40;99.90
26505;DHT22;19493;48.042;7.584;2023-06-19T05:09:28;18.40;99.90
26505;DHT22;19493;48.042;7.584;2023-06-19T05:11:54;18.40;99.90
26505;DHT22;19493;48.042;7.584;2023-06-19T05:14:20;18.50;99.90
26505;DHT22;19493;48.042;7.584;2023-06-19T05:16:45;18.60;99.90
26505;DHT22;19493;48.042;7.584;2023-06-19T05:19:11;18.70;99.90
26505;DHT22;19493;48.042;7.584;2023-06-19T05:21:37;18.80;99.90
26505;DHT22;19493;48.042;7.584;2023-06-19T05:24:02;19.00;99.90
26505;DHT22;19493;48.042;7.584;2023-06-19T05:26:28;19.10;99.90
26505;DHT22;19493;48.042;7.584;2023-06-19T05:28:54;19.20;99.90
26505;DHT22;19493;48.042;7.584;2023-06-19T05:31:19;19.30;99.90
26505;DHT22;19493;48.042;7.584;2023-06-19T05:33:45;19.40;99.90
26505;DHT22;19493;48.042;7.584;2023-06-19T05:36:11;19.50;99.90
26505;DHT22;19493;48.042;7.584;2023-06-19T05:38:37;19.60;99.90
26505;DHT22;19493;48.042;7.584;2023-06-19T05:41:03;19.90;99.90
26505;DHT22;19493;48.042;7.584;2023-06-19T05:43:28;20.20;99.90
26505;DHT22;19493;48.042;7.584;2023-06-19T05:45:54;20.40;99.90
26505;DHT22;19493;48.042;7.584;2023-06-19T05:48:21;20.50;99.90
26505;DHT22;19493;48.042;7.584;2023-06-19T05:50:47;20.70;99.90
26505;DHT22;19493;48.042;7.584;2023-06-19T05:53:12;20.80;99.90
26505;DHT22;19493;48.042;7.584;2023-06-19T05:55:38;20.90;99.90
26505;DHT22;19493;48.042;7.584;2023-06-19T05:58:03;20.80;99.90
26505;DHT22;19493;48.042;7.584;2023-06-19T06:00:30;20.90;99.90
26505;DHT22;19493;48.042;7.584;2023-06-19T06:02:57;20.90;99.90
26505;DHT22;19493;48.042;7.584;2023-06-19T06:05:25;21.00;99.90
26505;DHT22;19493;48.042;7.584;2023-06-19T06:07:52;21.10;99.90
26505;DHT22;19493;48.042;7.584;2023-06-19T06:10:20;21.10;99.90
26505;DHT22;19493;48.042;7.584;2023-06-19T06:12:45;21.20;99.90
26505;DHT22;19493;48.042;7.584;2023-06-19T06:15:11;21.40;99.90
26505;DHT22;19493;48.042;7.584;2023-06-19T06:17:36;21.50;99.90
26505;DHT22;19493;48.042;7.584;2023-06-19T06:20:02;21.70;99.90
26505;DHT22;19493;48.042;7.584;2023-06-19T06:22:31;21.90;99.90
26505;DHT22;19493;48.042;7.584;2023-06-19T06:24:57;22.10;99.90
26505;DHT22;19493;48.042;7.584;2023-06-19T06:27:22;22.00;99.90
26505;DHT22;19493;48.042;7.584;2023-06-19T06:29:48;22.00;99.90
26505;DHT22;19493;48.042;7.584;2023-06-19T06:32:13;22.10;99.90
26505;DHT22;19493;48.042;7.584;2023-06-19T06:34:39;22.30;99.90
26505;DHT22;19493;48.042;7.584;2023-06-19T06:37:04;22.70;99.90
26505;DHT22;19493;48.042;7.584;2023-06-19T06:39:30;23.10;99.90
26505;DHT22;19493;48.042;7.584;2023-06-19T06:41:56;23.50;99.90
26505;DHT22;19493;48.042;7.584;2023-06-19T06:44:22;23.70;99.90
26505;DHT22;19493;48.042;7.584;2023-06-19T06:46:47;23.80;99.90
26505;DHT22;19493;48.042;7.584;2023-06-19T06:49:13;24.00;99.90
26505;DHT22;19493;48.042;7.584;2023-06-19T06:51:39;24.00;99.90
26505;DHT22;19493;48.042;7.584;2023-06-19T06:54:04;23.90;99.90
26505;DHT22;19493;48.042;7.584;2023-06-19T06:56:30;24.00;99.90
26505;DHT22;19493;48.042;7.584;2023-06-19T06:58:55;24.10;99.90
26505;DHT22;19493;48.042;7.584;2023-06-19T07:01:21;24.20;99.90
26505;DHT22;19493;48.042;7.584;2023-06-19T07:03:46;24.10;99.90
26505;DHT22;19493;48.042;7.584;2023-06-19T07:06:12;24.00;99.90
26505;DHT22;19493;48.042;7.584;2023-06-19T07:08:37;24.00;99.90
26505;DHT22;19493;48.042;7.584;2023-06-19T07:11:06;23.90;99.90
26505;DHT22;19493;48.042;7.584;2023-06-19T07:13:32;23.80;99.90
26505;DHT22;19493;48.042;7.584;2023-06-19T07:15:58;23.70;99.90
26505;DHT22;19493;48.042;7.584;2023-06-19T07:18:24;23.50;99.90
26505;DHT22;19493;48.042;7.584;2023-06-19T07:20:50;23.50;99.90
26505;DHT22;19493;48.042;7.584;2023-06-19T07:23:15;23.50;99.90
26505;DHT22;19493;48.042;7.584;2023-06-19T07:25:41;23.40;99.90
26505;DHT22;19493;48.042;7.584;2023-06-19T07:28:06;23.30;99.90
26505;DHT22;19493;48.042;7.584;2023-06-19T07:30:32;23.40;99.90
26505;DHT22;19493;48.042;7.584;2023-06-19T07:32:58;23.50;99.90
26505;DHT22;19493;48.042;7.584;2023-06-19T07:35:23;23.60;99.90
26505;DHT22;19493;48.042;7.584;2023-06-19T07:37:49;23.70;99.90
26505;DHT22;19493;48.042;7.584;2023-06-19T07:40:14;23.80;99.90
26505;DHT22;19493;48.042;7.584;2023-06-19T07:42:40;23.80;99.90
26505;DHT22;19493;48.042;7.584;2023-06-19T07:45:06;23.90;99.90
26505;DHT22;19493;48.042;7.584;2023-06-19T07:47:32;24.00;99.90
26505;DHT22;19493;48.042;7.584;2023-06-19T07:49:57;24.40;99.90
26505;DHT22;19493;48.042;7.584;2023-06-19T07:52:23;24.70;99.90
26505;DHT22;19493;48.042;7.584;2023-06-19T07:54:51;25.00;99.90
26505;DHT22;19493;48.042;7.584;2023-06-19T07:57:17;25.10;99.90
26505;DHT22;19493;48.042;7.584;2023-06-19T07:59:43;25.10;99.90
26505;DHT22;19493;48.042;7.584;2023-06-19T08:02:10;24.90;99.90
26505;DHT22;19493;48.042;7.584;2023-06-19T08:04:35;24.90;99.90
26505;DHT22;19493;48.042;7.584;2023-06-19T08:07:01;25.00;99.90
26505;DHT22;19493;48.042;7.584;2023-06-19T08:09:26;25.10;99.90
26505;DHT22;19493;48.042;7.584;2023-06-19T08:11:52;25.20;99.90
26505;DHT22;19493;48.042;7.584;2023-06-19T08:14:17;25.20;99.90
26505;DHT22;19493;48.042;7.584;2023-06-19T08:16:43;25.20;99.90
26505;DHT22;19493;48.042;7.584;2023-06-19T08:19:08;25.10;99.90
26505;DHT22;19493;48.042;7.584;2023-06-19T08:21:34;25.20;99.90
26505;DHT22;19493;48.042;7.584;2023-06-19T08:23:59;25.50;99.90
26505;DHT22;19493;48.042;7.584;2023-06-19T08:26:25;25.90;99.90
26505;DHT22;19493;48.042;7.584;2023-06-19T08:28:50;26.40;99.90
26505;DHT22;19493;48.042;7.584;2023-06-19T08:31:16;26.70;99.90
26505;DHT22;19493;48.042;7.584;2023-06-19T08:33:42;26.90;99.90
26505;DHT22;19493;48.042;7.584;2023-06-19T08:36:07;27.00;99.90
26505;DHT22;19493;48.042;7.584;2023-06-19T08:38:33;27.00;99.90
26505;DHT22;19493;48.042;7.584;2023-06-19T08:40:58;26.90;99.90
26505;DHT22;19493;48.042;7.584;2023-06-19T08:43:24;27.00;99.90
26505;DHT22;19493;48.042;7.584;2023-06-19T08:48:30;26.70;96.10
26505;DHT22;19493;48.042;7.584;2023-06-19T08:50:56;26.70;93.00
26505;DHT22;19493;48.042;7.584;2023-06-19T08:53:21;26.80;94.00
26505;DHT22;19493;48.042;7.584;2023-06-19T08:55:48;27.00;93.80
26505;DHT22;19493;48.042;7.584;2023-06-19T08:58:21;27.20;93.00
26505;DHT22;19493;48.042;7.584;2023-06-19T09:00:47;27.20;92.10
26505;DHT22;19493;48.042;7.584;2023-06-19T09:03:22;27.50;93.00
26505;DHT22;19493;48.042;7.584;2023-06-19T09:05:48;27.80;92.50
26505;DHT22;19493;48.042;7.584;2023-06-19T09:08:17;28.20;88.90
26505;DHT22;19493;48.042;7.584;2023-06-19T09:11:03;29.10;83.30
26505;DHT22;19493;48.042;7.584;2023-06-19T09:16:01;30.60;80.00
26505;DHT22;19493;48.042;7.584;2023-06-19T09:18:29;30.90;69.40
26505;DHT22;19493;48.042;7.584;2023-06-19T09:20:57;31.20;65.50
26505;DHT22;19493;48.042;7.584;2023-06-19T09:23:23;31.60;65.60
26505;DHT22;19493;48.042;7.584;2023-06-19T09:28:24;34.00;93.00
26505;DHT22;19493;48.042;7.584;2023-06-19T09:30:58;33.30;55.80
26505;DHT22;19493;48.042;7.584;2023-06-19T09:33:26;34.00;53.10
26505;DHT22;19493;48.042;7.584;2023-06-19T09:35:54;34.30;50.90
26505;DHT22;19493;48.042;7.584;2023-06-19T09:38:29;34.20;49.80
26505;DHT22;19493;48.042;7.584;2023-06-19T09:40:56;34.70;47.80
26505;DHT22;19493;48.042;7.584;2023-06-19T09:43:28;34.60;46.90
26505;DHT22;19493;48.042;7.584;2023-06-19T09:45:56;34.50;48.10
26505;DHT22;19493;48.042;7.584;2023-06-19T09:48:27;34.70;47.30
26505;DHT22;19493;48.042;7.584;2023-06-19T09:53:22;35.40;45.70
26505;DHT22;19493;48.042;7.584;2023-06-19T09:55:49;35.70;44.60
26505;DHT22;19493;48.042;7.584;2023-06-19T09:58:19;36.00;44.60
26505;DHT22;19493;48.042;7.584;2023-06-19T10:00:46;36.00;44.90
26505;DHT22;19493;48.042;7.584;2023-06-19T10:03:13;35.90;45.70
26505;DHT22;19493;48.042;7.584;2023-06-19T10:05:39;36.20;45.70
26505;DHT22;19493;48.042;7.584;2023-06-19T10:08:06;36.80;46.00
26505;DHT22;19493;48.042;7.584;2023-06-19T10:10:31;37.40;44.00
26505;DHT22;19493;48.042;7.584;2023-06-19T10:13:11;37.60;41.50
26505;DHT22;19493;48.042;7.584;2023-06-19T10:15:41;37.40;41.90
26505;DHT22;19493;48.042;7.584;2023-06-19T10:18:09;36.60;42.00
26505;DHT22;19493;48.042;7.584;2023-06-19T10:20:38;36.60;42.50
26505;DHT22;19493;48.042;7.584;2023-06-19T10:23:10;36.60;41.50
26505;DHT22;19493;48.042;7.584;2023-06-19T10:25:46;36.10;42.10
26505;DHT22;19493;48.042;7.584;2023-06-19T10:30:45;36.70;41.50
26505;DHT22;19493;48.042;7.584;2023-06-19T10:33:16;37.30;41.60
26505;DHT22;19493;48.042;7.584;2023-06-19T10:35:42;37.50;39.80
26505;DHT22;19493;48.042;7.584;2023-06-19T10:38:08;37.40;40.50
26505;DHT22;19493;48.042;7.584;2023-06-19T10:40:36;37.60;39.60
26505;DHT22;19493;48.042;7.584;2023-06-19T10:43:01;37.40;39.30
26505;DHT22;19493;48.042;7.584;2023-06-19T10:45:27;38.20;39.70
26505;DHT22;19493;48.042;7.584;2023-06-19T10:47:54;38.20;38.40
26505;DHT22;19493;48.042;7.584;2023-06-19T10:50:20;38.30;39.10
26505;DHT22;19493;48.042;7.584;2023-06-19T10:52:46;38.70;39.20
26505;DHT22;19493;48.042;7.584;2023-06-19T10:55:13;37.60;38.50
26505;DHT22;19493;48.042;7.584;2023-06-19T10:57:40;36.30;40.30
26505;DHT22;19493;48.042;7.584;2023-06-19T11:00:10;35.80;42.10
26505;DHT22;19493;48.042;7.584;2023-06-19T11:02:45;35.70;41.50
26505;DHT22;19493;48.042;7.584;2023-06-19T11:05:11;36.60;40.50
26505;DHT22;19493;48.042;7.584;2023-06-19T11:07:37;37.80;39.70
26505;DHT22;19493;48.042;7.584;2023-06-19T11:10:04;38.40;37.90
26505;DHT22;19493;48.042;7.584;2023-06-19T11:12:31;37.90;39.10
26505;DHT22;19493;48.042;7.584;2023-06-19T11:14:58;37.00;39.00
26505;DHT22;19493;48.042;7.584;2023-06-19T11:17:24;36.20;40.30
26505;DHT22;19493;48.042;7.584;2023-06-19T11:19:52;36.00;40.00
26505;DHT22;19493;48.042;7.584;2023-06-19T11:22:17;36.60;39.50
26505;DHT22;19493;48.042;7.584;2023-06-19T11:24:44;36.70;39.50
26505;DHT22;19493;48.042;7.584;2023-06-19T11:27:17;37.30;38.90
26505;DHT22;19493;48.042;7.584;2023-06-19T11:29:43;38.10;39.10
26505;DHT22;19493;48.042;7.584;2023-06-19T11:32:12;38.80;37.70
26505;DHT22;19493;48.042;7.584;2023-06-19T11:34:39;37.80;37.30
26505;DHT22;19493;48.042;7.584;2023-06-19T11:37:15;37.00;39.30
26505;DHT22;19493;48.042;7.584;2023-06-19T11:39:44;36.10;40.50
26505;DHT22;19493;48.042;7.584;2023-06-19T11:42:10;35.40;42.20
26505;DHT22;19493;48.042;7.584;2023-06-19T11:44:52;35.70;41.00
26505;DHT22;19493;48.042;7.584;2023-06-19T11:47:18;35.90;40.70
26505;DHT22;19493;48.042;7.584;2023-06-19T11:49:47;36.20;40.10
26505;DHT22;19493;48.042;7.584;2023-06-19T11:52:13;37.10;38.80
26505;DHT22;19493;48.042;7.584;2023-06-19T11:54:39;37.50;37.50
26505;DHT22;19493;48.042;7.584;2023-06-19T11:57:05;37.80;37.00
26505;DHT22;19493;48.042;7.584;2023-06-19T11:59:30;38.30;36.90
26505;DHT22;19493;48.042;7.584;2023-06-19T12:01:56;39.70;36.00
26505;DHT22;19493;48.042;7.584;2023-06-19T12:04:24;39.10;34.80
26505;DHT22;19493;48.042;7.584;2023-06-19T12:06:49;37.60;35.40
26505;DHT22;19493;48.042;7.584;2023-06-19T12:09:15;35.80;37.80
26505;DHT22;19493;48.042;7.584;2023-06-19T12:11:40;34.80;39.20
26505;DHT22;19493;48.042;7.584;2023-06-19T12:14:06;34.40;40.60
26505;DHT22;19493;48.042;7.584;2023-06-19T12:16:31;34.00;40.30
26505;DHT22;19493;48.042;7.584;2023-06-19T12:18:57;33.90;40.60
26505;DHT22;19493;48.042;7.584;2023-06-19T12:21:23;33.80;40.90
26505;DHT22;19493;48.042;7.584;2023-06-19T12:23:50;34.00;40.60
26505;DHT22;19493;48.042;7.584;2023-06-19T12:26:15;34.20;40.80
26505;DHT22;19493;48.042;7.584;2023-06-19T12:28:41;34.10;39.70
26505;DHT22;19493;48.042;7.584;2023-06-19T12:31:06;33.70;41.20
26505;DHT22;19493;48.042;7.584;2023-06-19T12:33:32;33.90;41.80
26505;DHT22;19493;48.042;7.584;2023-06-19T12:35:58;34.60;39.90
26505;DHT22;19493;48.042;7.584;2023-06-19T12:38:24;35.10;39.80
26505;DHT22;19493;48.042;7.584;2023-06-19T12:40:49;36.60;37.80
26505;DHT22;19493;48.042;7.584;2023-06-19T12:43:15;37.50;35.50
26505;DHT22;19493;48.042;7.584;2023-06-19T12:45:41;37.20;36.40
26505;DHT22;19493;48.042;7.584;2023-06-19T12:48:10;37.30;36.00
26505;DHT22;19493;48.042;7.584;2023-06-19T12:50:36;37.90;35.50
26505;DHT22;19493;48.042;7.584;2023-06-19T12:53:02;38.10;34.90
26505;DHT22;19493;48.042;7.584;2023-06-19T12:55:27;36.90;35.60
26505;DHT22;19493;48.042;7.584;2023-06-19T12:57:53;35.50;37.80
26505;DHT22;19493;48.042;7.584;2023-06-19T13:00:19;34.30;39.30
26505;DHT22;19493;48.042;7.584;2023-06-19T13:02:44;33.50;40.80
26505;DHT22;19493;48.042;7.584;2023-06-19T13:05:11;32.90;41.20
26505;DHT22;19493;48.042;7.584;2023-06-19T13:07:37;32.30;42.10
26505;DHT22;19493;48.042;7.584;2023-06-19T13:10:03;31.70;43.40
26505;DHT22;19493;48.042;7.584;2023-06-19T13:12:29;31.60;44.30
26505;DHT22;19493;48.042;7.584;2023-06-19T13:14:55;31.50;44.00
26505;DHT22;19493;48.042;7.584;2023-06-19T13:17:20;32.00;44.50
26505;DHT22;19493;48.042;7.584;2023-06-19T13:19:46;32.70;43.30
26505;DHT22;19493;48.042;7.584;2023-06-19T13:22:11;33.50;41.60
26505;DHT22;19493;48.042;7.584;2023-06-19T13:24:37;35.00;40.40
26505;DHT22;19493;48.042;7.584;2023-06-19T13:27:03;37.50;37.40
26505;DHT22;19493;48.042;7.584;2023-06-19T13:29:28;39.10;37.70
26505;DHT22;19493;48.042;7.584;2023-06-19T13:31:55;40.60;34.90
26505;DHT22;19493;48.042;7.584;2023-06-19T13:34:20;41.60;32.80
26505;DHT22;19493;48.042;7.584;2023-06-19T13:36:53;41.80;31.10
26505;DHT22;19493;48.042;7.584;2023-06-19T13:39:18;41.60;31.00
26505;DHT22;19493;48.042;7.584;2023-06-19T13:41:47;41.80;32.20
26505;DHT22;19493;48.042;7.584;2023-06-19T13:44:13;41.90;31.60
26505;DHT22;19493;48.042;7.584;2023-06-19T13:46:39;42.40;31.00
26505;DHT22;19493;48.042;7.584;2023-06-19T13:49:04;42.30;31.70
26505;DHT22;19493;48.042;7.584;2023-06-19T13:51:30;42.50;30.60
26505;DHT22;19493;48.042;7.584;2023-06-19T13:53:55;42.30;30.00
26505;DHT22;19493;48.042;7.584;2023-06-19T13:56:21;41.60;31.20
26505;DHT22;19493;48.042;7.584;2023-06-19T13:58:48;41.60;30.00
26505;DHT22;19493;48.042;7.584;2023-06-19T14:01:14;42.20;30.80
26505;DHT22;19493;48.042;7.584;2023-06-19T14:03:39;42.90;29.70
26505;DHT22;19493;48.042;7.584;2023-06-19T14:06:06;42.60;29.30
26505;DHT22;19493;48.042;7.584;2023-06-19T14:08:32;42.20;29.90
26505;DHT22;19493;48.042;7.584;2023-06-19T14:10:58;42.20;29.40
26505;DHT22;19493;48.042;7.584;2023-06-19T14:13:24;42.50;29.40
26505;DHT22;19493;48.042;7.584;2023-06-19T14:15:49;43.00;29.40
26505;DHT22;19493;48.042;7.584;2023-06-19T14:18:16;43.40;28.60
26505;DHT22;19493;48.042;7.584;2023-06-19T14:20:42;43.50;28.10
26505;DHT22;19493;48.042;7.584;2023-06-19T14:23:08;42.80;28.40
26505;DHT22;19493;48.042;7.584;2023-06-19T14:25:34;42.50;28.90
26505;DHT22;19493;48.042;7.584;2023-06-19T14:28:01;43.40;28.70
26505;DHT22;19493;48.042;7.584;2023-06-19T14:30:27;43.70;28.20
26505;DHT22;19493;48.042;7.584;2023-06-19T14:33:13;43.90;28.30
26505;DHT22;19493;48.042;7.584;2023-06-19T14:35:42;44.40;27.50
26505;DHT22;19493;48.042;7.584;2023-06-19T14:38:10;44.10;27.50
26505;DHT22;19493;48.042;7.584;2023-06-19T14:40:35;43.40;27.70
26505;DHT22;19493;48.042;7.584;2023-06-19T14:43:01;42.60;28.40
26505;DHT22;19493;48.042;7.584;2023-06-19T14:45:26;42.00;29.00
26505;DHT22;19493;48.042;7.584;2023-06-19T14:47:52;41.50;29.20
26505;DHT22;19493;48.042;7.584;2023-06-19T14:50:17;41.00;30.00
26505;DHT22;19493;48.042;7.584;2023-06-19T14:52:43;40.30;29.50
26505;DHT22;19493;48.042;7.584;2023-06-19T14:55:10;40.00;29.60
26505;DHT22;19493;48.042;7.584;2023-06-19T14:57:36;40.20;29.20
26505;DHT22;19493;48.042;7.584;2023-06-19T15:00:02;40.20;29.40
26505;DHT22;19493;48.042;7.584;2023-06-19T15:02:28;41.40;29.20
26505;DHT22;19493;48.042;7.584;2023-06-19T15:04:53;42.50;28.40
26505;DHT22;19493;48.042;7.584;2023-06-19T15:07:19;43.20;27.50
26505;DHT22;19493;48.042;7.584;2023-06-19T15:09:44;43.40;27.10
26505;DHT22;19493;48.042;7.584;2023-06-19T15:12:10;43.60;27.50
26505;DHT22;19493;48.042;7.584;2023-06-19T15:14:35;43.40;26.70
26505;DHT22;19493;48.042;7.584;2023-06-19T15:17:03;43.10;26.40
26505;DHT22;19493;48.042;7.584;2023-06-19T15:19:29;42.60;26.50
26505;DHT22;19493;48.042;7.584;2023-06-19T15:21:54;42.60;26.80
26505;DHT22;19493;48.042;7.584;2023-06-19T15:24:20;42.50;27.50
26505;DHT22;19493;48.042;7.584;2023-06-19T15:26:45;42.10;27.80
26505;DHT22;19493;48.042;7.584;2023-06-19T15:29:11;41.60;28.70
26505;DHT22;19493;48.042;7.584;2023-06-19T15:31:37;41.60;28.50
26505;DHT22;19493;48.042;7.584;2023-06-19T15:34:02;42.10;28.00
26505;DHT22;19493;48.042;7.584;2023-06-19T15:36:28;42.20;26.80
26505;DHT22;19493;48.042;7.584;2023-06-19T15:38:54;42.20;27.20
26505;DHT22;19493;48.042;7.584;2023-06-19T15:41:19;41.70;27.50